sensor_id;sensor_type;location;lat;lon;timestamp;temperature;humidity
8591;DHT22;4333;48.322;14.340;2022-12-29T00:02:12;0.00;99.90
8591;DHT22;4333;48.322;14.340;2022-12-29T00:04:38;0.00;99.90
8591;DHT22;4333;48.322;14.340;2022-12-29T00:07:04;-0.10;99.90
8591;DHT22;4333;48.322;14.340;2022-12-29T00:09:31;-0.20;99.90
8591;DHT22;4333;48.322;14.340;2022-12-29T00:11:58;-0.20;99.90
8591;DHT22;4333;48.322;14.340;2022-12-29T00:14:24;-0.20;99.90
8591;DHT22;4333;48.322;14.340;2022-12-29T00:17:10;-0.20;99.90
8591;DHT22;4333;48.322;14.340;2022-12-29T00:19:36;-0.20;99.90
8591;DHT22;4333;48.322;14.340;2022-12-29T00:22:20;-0.20;99.90
8591;DHT22;4333;48.322;14.340;2022-12-29T00:25:05;-0.20;99.90
8591;DHT22;4333;48.322;14.340;2022-12-29T00:27:52;-0.20;99.90
8591;DHT22;4333;48.322;14.340;2022-12-29T00:30:43;-0.10;99.90
8591;DHT22;4333;48.322;14.340;2022-12-29T00:33:32;-0.10;99.90
8591;DHT22;4333;48.322;14.340;2022-12-29T00:39:01;-0.10;99.90
8591;DHT22;4333;48.322;14.340;2022-12-29T00:41:47;-0.10;99.90
8591;DHT22;4333;48.322;14.340;2022-12-29T00:44:32;-0.10;99.90
8591;DHT22;4333;48.322;14.340;2022-12-29T00:46:58;-0.10;99.90
8591;DHT22;4333;48.322;14.340;2022-12-29T00:49:27;-0.20;99.90
8591;DHT22;4333;48.322;14.340;2022-12-29T00:52:08;-0.20;99.90
8591;DHT22;4333;48.322;14.340;2022-12-29T00:54:36;-0.20;99.90
8591;DHT22;4333;48.322;14.340;2022-12-29T00:57:03;-0.10;99.90
8591;DHT22;4333;48.322;14.340;2022-12-29T00:59:29;-0.10;99.90
8591;DHT22;4333;48.322;14.340;2022-12-29T01:01:55;-0.10;99.90
8591;DHT22;4333;48.322;14.340;2022-12-29T01:04:23;-0.20;99.90
8591;DHT22;4333;48.322;14.340;2022-12-29T01:06:49;-0.20;99.90
8591;DHT22;4333;48.322;14.340;2022-12-29T01:09:16;-0.20;99.90
8591;DHT22;4333;48.322;14.340;2022-12-29T01:12:01;-0.30;99.90
8591;DHT22;4333;48.322;14.340;2022-12-29T01:14:27;-0.40;99.90
8591;DHT22;4333;48.322;14.340;2022-12-29T01:16:53;-0.40;99.90
8591;DHT22;4333;48.322;14.340;2022-12-29T01:19:20;-0.40;99.90
8591;DHT22;4333;48.322;14.340;2022-12-29T01:21:46;-0.40;99.90
8591;DHT22;4333;48.322;14.340;2022-12-29T01:24:13;-0.40;99.90
8591;DHT22;4333;48.322;14.340;2022-12-29T01:26:42;-0.40;99.90
8591;DHT22;4333;48.322;14.340;2022-12-29T01:29:07;-0.50;99.90
8591;DHT22;4333;48.322;14.340;2022-12-29T01:31:33;-0.50;99.90
8591;DHT22;4333;48.322;14.340;2022-12-29T01:33:59;-0.40;99.90
8591;DHT22;4333;48.322;14.340;2022-12-29T01:36:25;-0.40;99.90
8591;DHT22;4333;48.322;14.340;2022-12-29T01:38:51;-0.30;99.90
8591;DHT22;4333;48.322;14.340;2022-12-29T01:41:17;-0.40;99.90
8591;DHT22;4333;48.322;14.340;2022-12-29T01:43:48;-0.40;99.90
8591;DHT22;4333;48.322;14.340;2022-12-29T01:46:30;-0.40;99.90
8591;DHT22;4333;48.322;14.340;2022-12-29T01:49:26;-0.30;99.90
8591;DHT22;4333;48.322;14.340;2022-12-29T01:51:56;-0.30;99.90
8591;DHT22;4333;48.322;14.340;2022-12-29T01:54:31;-0.40;99.90
8591;DHT22;4333;48.322;14.340;2022-12-29T01:57:01;-0.30;99.90
8591;DHT22;4333;48.322;14.340;2022-12-29T01:59:32;-0.30;99.90
8591;DHT22;4333;48.322;14.340;2022-12-29T02:02:00;-0.30;99.90
8591;DHT22;4333;48.322;14.340;2022-12-29T02:04:27;-0.40;99.90
8591;DHT22;4333;48.322;14.340;2022-12-29T02:07:08;-0.50;99.90
8591;DHT22;4333;48.322;14.340;2022-12-29T02:09:36;-0.50;99.90
8591;DHT22;4333;48.322;14.340;2022-12-29T02:12:02;-0.40;99.90
8591;DHT22;4333;48.322;14.340;2022-12-29T02:14:28;-0.40;99.90
8591;DHT22;4333;48.322;14.340;2022-12-29T02:27:51;-0.40;99.90
8591;DHT22;4333;48.322;14.340;2022-12-29T02:44:34;-0.50;99.90
8591;DHT22;4333;48.322;14.340;2022-12-29T02:47:09;-0.50;99.90
8591;DHT22;4333;48.322;14.340;2022-12-29T02:50:07;-0.40;99.90
8591;DHT22;4333;48.322;14.340;2022-12-29T02:52:52;-0.50;99.90
8591;DHT22;4333;48.322;14.340;2022-12-29T02:55:21;-0.50;99.90
8591;DHT22;4333;48.322;14.340;2022-12-29T02:57:48;-0.40;99.90
8591;DHT22;4333;48.322;14.340;2022-12-29T03:00:16;-0.50;99.90
8591;DHT22;4333;48.322;14.340;2022-12-29T03:11:30;-0.50;99.90
8591;DHT22;4333;48.322;14.340;2022-12-29T03:17:18;-0.50;99.90
8591;DHT22;4333;48.322;14.340;2022-12-29T03:19:50;-0.50;99.90
8591;DHT22;4333;48.322;14.340;2022-12-29T03:22:24;-0.60;99.90
8591;DHT22;4333;48.322;14.340;2022-12-29T03:27:39;-0.60;99.90
8591;DHT22;4333;48.322;14.340;2022-12-29T03:30:07;-0.60;99.90
8591;DHT22;4333;48.322;14.340;2022-12-29T03:32:55;-0.60;99.90
8591;DHT22;4333;48.322;14.340;2022-12-29T03:35:25;-0.60;99.90
8591;DHT22;4333;48.322;14.340;2022-12-29T03:38:16;-0.60;99.90
8591;DHT22;4333;48.322;14.340;2022-12-29T03:40:44;-0.70;99.90
8591;DHT22;4333;48.322;14.340;2022-12-29T03:43:12;-0.70;99.90
8591;DHT22;4333;48.322;14.340;2022-12-29T03:45:38;-0.80;99.90
8591;DHT22;4333;48.322;14.340;2022-12-29T03:48:04;-0.80;99.90
8591;DHT22;4333;48.322;14.340;2022-12-29T03:50:30;-0.70;99.90
8591;DHT22;4333;48.322;14.340;2022-12-29T03:52:56;-0.70;99.90
8591;DHT22;4333;48.322;14.340;2022-12-29T03:55:21;-0.70;99.90
8591;DHT22;4333;48.322;14.340;2022-12-29T03:57:47;-0.70;99.90
8591;DHT22;4333;48.322;14.340;2022-12-29T04:00:13;-0.80;99.90
8591;DHT22;4333;48.322;14.340;2022-12-29T04:02:39;-0.80;99.90
8591;DHT22;4333;48.322;14.340;2022-12-29T04:05:06;-0.80;99.90
8591;DHT22;4333;48.322;14.340;2022-12-29T04:07:31;-0.80;99.90
8591;DHT22;4333;48.322;14.340;2022-12-29T04:09:57;-0.80;99.90
8591;DHT22;4333;48.322;14.340;2022-12-29T04:12:23;-0.80;99.90
8591;DHT22;4333;48.322;14.340;2022-12-29T04:14:49;-0.80;99.90
8591;DHT22;4333;48.322;14.340;2022-12-29T04:17:14;-0.80;99.90
8591;DHT22;4333;48.322;14.340;2022-12-29T04:19:40;-0.90;99.90
8591;DHT22;4333;48.322;14.340;2022-12-29T04:22:06;-0.90;99.90
8591;DHT22;4333;48.322;14.340;2022-12-29T04:24:32;-0.90;99.90
8591;DHT22;4333;48.322;14.340;2022-12-29T04:26:57;-0.90;99.90
8591;DHT22;4333;48.322;14.340;2022-12-29T04:29:23;-1.00;99.90
8591;DHT22;4333;48.322;14.340;2022-12-29T04:31:49;-0.90;99.90
8591;DHT22;4333;48.322;14.340;2022-12-29T04:34:15;-0.70;99.90
8591;DHT22;4333;48.322;14.340;2022-12-29T04:36:41;-0.80;99.90
8591;DHT22;4333;48.322;14.340;2022-12-29T04:39:07;-0.80;99.90
8591;DHT22;4333;48.322;14.340;2022-12-29T04:41:33;-0.90;99.90
8591;DHT22;4333;48.322;14.340;2022-12-29T04:43:59;-1.00;99.90
8591;DHT22;4333;48.322;14.340;2022-12-29T04:46:24;-1.00;99.90
8591;DHT22;4333;48.322;14.340;2022-12-29T04:48:50;-0.90;99.90
8591;DHT22;4333;48.322;14.340;2022-12-29T04:51:16;-0.70;99.90
8591;DHT22;4333;48.322;14.340;2022-12-29T04:53:42;-0.70;99.90
8591;DHT22;4333;48.322;14.340;2022-12-29T04:56:08;-0.70;99.90
8591;DHT22;4333;48.322;14.340;2022-12-29T04:58:35;-0.80;99.90
8591;DHT22;4333;48.322;14.340;2022-12-29T05:01:02;-1.00;99.90
8591;DHT22;4333;48.322;14.340;2022-12-29T05:03:28;-1.10;99.90
8591;DHT22;4333;48.322;14.340;2022-12-29T05:05:57;-1.10;99.90
8591;DHT22;4333;48.322;14.340;2022-12-29T05:08:23;-1.20;99.90
8591;DHT22;4333;48.322;14.340;2022-12-29T05:10:52;-1.20;99.90
8591;DHT22;4333;48.322;14.340;2022-12-29T05:13:18;-1.20;99.90
8591;DHT22;4333;48.322;14.340;2022-12-29T05:15:51;-1.20;99.90
8591;DHT22;4333;48.322;14.340;2022-12-29T05:18:18;-1.20;99.90
8591;DHT22;4333;48.322;14.340;2022-12-29T05:20:44;-1.10;99.90
8591;DHT22;4333;48.322;14.340;2022-12-29T05:23:10;-1.00;99.90
8591;DHT22;4333;48.322;14.340;2022-12-29T05:25:36;-0.90;99.90
8591;DHT22;4333;48.322;14.340;2022-12-29T05:28:02;-1.00;99.90
8591;DHT22;4333;48.322;14.340;2022-12-29T05:30:27;-1.00;99.90
8591;DHT22;4333;48.322;14.340;2022-12-29T05:32:53;-0.90;99.90
8591;DHT22;4333;48.322;14.340;2022-12-29T05:35:20;-1.00;99.90
8591;DHT22;4333;48.322;14.340;2022-12-29T05:37:46;-1.00;99.90
8591;DHT22;4333;48.322;14.340;2022-12-29T05:40:11;-1.00;99.90
8591;DHT22;4333;48.322;14.340;2022-12-29T05:42:37;-1.10;99.90
8591;DHT22;4333;48.322;14.340;2022-12-29T05:45:03;-1.00;99.90
8591;DHT22;4333;48.322;14.340;2022-12-29T05:47:32;-0.90;99.90
8591;DHT22;4333;48.322;14.340;2022-12-29T05:49:58;-0.90;99.90
8591;DHT22;4333;48.322;14.340;2022-12-29T05:52:24;-0.90;99.90
8591;DHT22;4333;48.322;14.340;2022-12-29T05:54:50;-1.00;99.90
8591;DHT22;4333;48.322;14.340;2022-12-29T05:57:16;-1.10;99.90
8591;DHT22;4333;48.322;14.340;2022-12-29T05:59:42;-1.20;99.90
8591;DHT22;4333;48.322;14.340;2022-12-29T06:02:09;-1.20;99.90
8591;DHT22;4333;48.322;14.340;2022-12-29T06:04:35;-1.20;99.90
8591;DHT22;4333;48.322;14.340;2022-12-29T06:07:01;-1.20;99.90
8591;DHT22;4333;48.322;14.340;2022-12-29T06:09:27;-1.20;99.90
8591;DHT22;4333;48.322;14.340;2022-12-29T06:11:53;-1.20;99.90
8591;DHT22;4333;48.322;14.340;2022-12-29T06:14:18;-1.20;99.90
8591;DHT22;4333;48.322;14.340;2022-12-29T06:16:44;-1.20;99.90
8591;DHT22;4333;48.322;14.340;2022-12-29T06:19:10;-1.00;99.90
8591;DHT22;4333;48.322;14.340;2022-12-29T06:21:36;-0.90;99.90
8591;DHT22;4333;48.322;14.340;2022-12-29T06:24:03;-1.00;99.90
8591;DHT22;4333;48.322;14.340;2022-12-29T06:26:29;-1.10;99.90
8591;DHT22;4333;48.322;14.340;2022-12-29T06:28:55;-1.20;99.90
8591;DHT22;4333;48.322;14.340;2022-12-29T06:31:21;-1.10;99.90
8591;DHT22;4333;48.322;14.340;2022-12-29T06:33:47;-0.90;99.90
8591;DHT22;4333;48.322;14.340;2022-12-29T06:36:13;-0.90;99.90
8591;DHT22;4333;48.322;14.340;2022-12-29T06:38:39;-1.00;99.90
8591;DHT22;4333;48.322;14.340;2022-12-29T06:41:04;-1.10;99.90
8591;DHT22;4333;48.322;14.340;2022-12-29T06:43:30;-1.20;99.90
8591;DHT22;4333;48.322;14.340;2022-12-29T06:45:57;-1.20;99.90
8591;DHT22;4333;48.322;14.340;2022-12-29T06:48:23;-1.20;99.90
8591;DHT22;4333;48.322;14.340;2022-12-29T06:50:49;-1.20;99.90
8591;DHT22;4333;48.322;14.340;2022-12-29T06:53:15;-1.20;99.90
8591;DHT22;4333;48.322;14.340;2022-12-29T06:55:42;-1.20;99.90
8591;DHT22;4333;48.322;14.340;2022-12-29T06:58:08;-1.20;99.90
8591;DHT22;4333;48.322;14.340;2022-12-29T07:00:34;-1.20;99.90
8591;DHT22;4333;48.322;14.340;2022-12-29T07:03:00;-1.20;99.90
8591;DHT22;4333;48.322;14.340;2022-12-29T07:05:26;-1.10;99.90
8591;DHT22;4333;48.322;14.340;2022-12-29T07:07:57;-1.10;99.90
8591;DHT22;4333;48.322;14.340;2022-12-29T07:10:23;-1.10;99.90
8591;DHT22;4333;48.322;14.340;2022-12-29T07:12:49;-1.10;99.90
8591;DHT22;4333;48.322;14.340;2022-12-29T07:15:14;-1.00;99.90
8591;DHT22;4333;48.322;14.340;2022-12-29T07:17:40;-1.10;99.90
8591;DHT22;4333;48.322;14.340;2022-12-29T07:20:07;-1.10;99.90
8591;DHT22;4333;48.322;14.340;2022-12-29T07:22:33;-0.90;99.90
8591;DHT22;4333;48.322;14.340;2022-12-29T07:24:59;-0.90;99.90
8591;DHT22;4333;48.322;14.340;2022-12-29T07:27:25;-0.80;99.90
8591;DHT22;4333;48.322;14.340;2022-12-29T07:29:51;-0.80;99.90
8591;DHT22;4333;48.322;14.340;2022-12-29T07:32:17;-0.70;99.90
8591;DHT22;4333;48.322;14.340;2022-12-29T07:34:42;-0.70;99.90
8591;DHT22;4333;48.322;14.340;2022-12-29T07:37:10;-0.70;99.90
8591;DHT22;4333;48.322;14.340;2022-12-29T07:39:36;-0.70;99.90
8591;DHT22;4333;48.322;14.340;2022-12-29T07:42:02;-0.70;99.90
8591;DHT22;4333;48.322;14.340;2022-12-29T07:44:28;-0.80;99.90
8591;DHT22;4333;48.322;14.340;2022-12-29T07:46:53;-0.80;99.90
8591;DHT22;4333;48.322;14.340;2022-12-29T07:49:19;-0.70;99.90
8591;DHT22;4333;48.322;14.340;2022-12-29T07:51:45;-0.50;99.90
8591;DHT22;4333;48.322;14.340;2022-12-29T07:54:11;-0.40;99.90
8591;DHT22;4333;48.322;14.340;2022-12-29T07:56:39;-0.10;99.90
8591;DHT22;4333;48.322;14.340;2022-12-29T07:59:04;0.10;99.90
8591;DHT22;4333;48.322;14.340;2022-12-29T08:01:30;0.20;99.90
8591;DHT22;4333;48.322;14.340;2022-12-29T08:03:59;0.20;99.90
8591;DHT22;4333;48.322;14.340;2022-12-29T08:06:25;0.20;99.90
8591;DHT22;4333;48.322;14.340;2022-12-29T08:08:50;0.30;99.90
8591;DHT22;4333;48.322;14.340;2022-12-29T08:11:16;0.40;99.90
8591;DHT22;4333;48.322;14.340;2022-12-29T08:13:42;0.60;99.90
8591;DHT22;4333;48.322;14.340;2022-12-29T08:16:08;0.50;99.90
8591;DHT22;4333;48.322;14.340;2022-12-29T08:18:34;0.50;99.90
8591;DHT22;4333;48.322;14.340;2022-12-29T08:21:04;0.60;99.90
8591;DHT22;4333;48.322;14.340;2022-12-29T08:23:30;0.50;99.90
8591;DHT22;4333;48.322;14.340;2022-12-29T08:26:01;0.40;99.90
8591;DHT22;4333;48.322;14.340;2022-12-29T08:28:27;0.50;99.90
8591;DHT22;4333;48.322;14.340;2022-12-29T08:30:53;0.60;99.90
8591;DHT22;4333;48.322;14.340;2022-12-29T08:33:19;0.70;99.90
8591;DHT22;4333;48.322;14.340;2022-12-29T08:35:44;0.90;99.90
8591;DHT22;4333;48.322;14.340;2022-12-29T08:38:10;0.90;99.90
8591;DHT22;4333;48.322;14.340;2022-12-29T08:40:39;0.90;99.90
8591;DHT22;4333;48.322;14.340;2022-12-29T08:43:05;0.90;99.90
8591;DHT22;4333;48.322;14.340;2022-12-29T08:45:31;0.80;99.90
8591;DHT22;4333;48.322;14.340;2022-12-29T08:47:57;0.90;99.90
8591;DHT22;4333;48.322;14.340;2022-12-29T08:50:24;1.00;99.90
8591;DHT22;4333;48.322;14.340;2022-12-29T08:52:50;1.00;99.90
8591;DHT22;4333;48.322;14.340;2022-12-29T08:55:16;1.20;99.90
8591;DHT22;4333;48.322;14.340;2022-12-29T08:57:41;1.30;99.90
8591;DHT22;4333;48.322;14.340;2022-12-29T09:00:09;1.50;99.90
8591;DHT22;4333;48.322;14.340;2022-12-29T09:02:35;1.50;99.90
8591;DHT22;4333;48.322;14.340;2022-12-29T09:05:01;1.70;99.90
8591;DHT22;4333;48.322;14.340;2022-12-29T09:07:27;2.10;99.90
8591;DHT22;4333;48.322;14.340;2022-12-29T09:09:53;3.10;99.90
8591;DHT22;4333;48.322;14.340;2022-12-29T09:12:19;3.90;99.90
8591;DHT22;4333;48.322;14.340;2022-12-29T09:14:46;4.30;99.90
8591;DHT22;4333;48.322;14.340;2022-12-29T09:17:12;4.90;99.90
8591;DHT22;4333;48.322;14.340;2022-12-29T09:19:56;5.00;99.90
8591;DHT22;4333;48.322;14.340;2022-12-29T09:22:22;4.30;99.90
8591;DHT22;4333;48.322;14.340;2022-12-29T09:24:47;3.70;99.90
8591;DHT22;4333;48.322;14.340;2022-12-29T09:27:13;3.40;99.90
8591;DHT22;4333;48.322;14.340;2022-12-29T09:29:39;3.40;99.90
8591;DHT22;4333;48.322;14.340;2022-12-29T09:32:06;3.60;99.90
8591;DHT22;4333;48.322;14.340;2022-12-29T09:34:32;3.80;99.90
8591;DHT22;4333;48.322;14.340;2022-12-29T09:36:58;3.90;99.90
8591;DHT22;4333;48.322;14.340;2022-12-29T09:39:24;4.10;99.90
8591;DHT22;4333;48.322;14.340;2022-12-29T09:47:19;4.50;99.90
8591;DHT22;4333;48.322;14.340;2022-12-29T09:50:04;4.90;99.90
8591;DHT22;4333;48.322;14.340;2022-12-29T09:52:50;4.90;99.90
8591;DHT22;4333;48.322;14.340;2022-12-29T09:55:26;4.90;99.90
8591;DHT22;4333;48.322;14.340;2022-12-29T09:58:39;5.10;99.90
8591;DHT22;4333;48.322;14.340;2022-12-29T10:06:32;7.30;99.90
8591;DHT22;4333;48.322;14.340;2022-12-29T10:14:45;7.10;96.20
8591;DHT22;4333;48.322;14.340;2022-12-29T10:25:24;6.40;93.90
8591;DHT22;4333;48.322;14.340;2022-12-29T10:27:52;5.60;93.70
8591;DHT22;4333;48.322;14.340;2022-12-29T10:30:19;5.10;99.10
8591;DHT22;4333;48.322;14.340;2022-12-29T10:32:53;5.10;99.90
8591;DHT22;4333;48.322;14.340;2022-12-29T10:35:23;5.50;99.90
8591;DHT22;4333;48.322;14.340;2022-12-29T10:38:04;6.20;99.90
8591;DHT22;4333;48.322;14.340;2022-12-29T10:43:25;6.70;99.10
8591;DHT22;4333;48.322;14.340;2022-12-29T10:45:57;6.90;97.40
8591;DHT22;4333;48.322;14.340;2022-12-29T10:48:34;7.30;95.90
8591;DHT22;4333;48.322;14.340;2022-12-29T10:51:05;7.40;92.10
8591;DHT22;4333;48.322;14.340;2022-12-29T10:53:44;7.30;88.80
8591;DHT22;4333;48.322;14.340;2022-12-29T10:56:36;6.90;87.40
8591;DHT22;4333;48.322;14.340;2022-12-29T10:59:31;7.00;95.10
8591;DHT22;4333;48.322;14.340;2022-12-29T11:07:17;7.00;91.10
8591;DHT22;4333;48.322;14.340;2022-12-29T11:09:44;7.10;91.60
8591;DHT22;4333;48.322;14.340;2022-12-29T11:12:28;7.20;92.60
8591;DHT22;4333;48.322;14.340;2022-12-29T11:15:11;7.20;92.90
8591;DHT22;4333;48.322;14.340;2022-12-29T11:17:44;7.40;93.20
8591;DHT22;4333;48.322;14.340;2022-12-29T11:20:32;7.50;90.70
8591;DHT22;4333;48.322;14.340;2022-12-29T11:22:59;7.50;90.20
8591;DHT22;4333;48.322;14.340;2022-12-29T11:25:26;7.60;91.20
8591;DHT22;4333;48.322;14.340;2022-12-29T11:28:15;7.30;89.30
8591;DHT22;4333;48.322;14.340;2022-12-29T11:30:42;6.70;93.70
8591;DHT22;4333;48.322;14.340;2022-12-29T11:33:09;6.60;97.40
8591;DHT22;4333;48.322;14.340;2022-12-29T11:35:40;7.00;99.90
8591;DHT22;4333;48.322;14.340;2022-12-29T11:38:19;7.40;97.50
8591;DHT22;4333;48.322;14.340;2022-12-29T11:40:45;7.80;94.40
8591;DHT22;4333;48.322;14.340;2022-12-29T11:43:23;7.90;88.70
8591;DHT22;4333;48.322;14.340;2022-12-29T11:45:52;8.10;90.10
8591;DHT22;4333;48.322;14.340;2022-12-29T11:48:20;8.20;88.70
8591;DHT22;4333;48.322;14.340;2022-12-29T11:50:54;8.40;89.60
8591;DHT22;4333;48.322;14.340;2022-12-29T11:53:42;8.40;88.00
8591;DHT22;4333;48.322;14.340;2022-12-29T11:56:12;8.50;87.30
8591;DHT22;4333;48.322;14.340;2022-12-29T11:58:40;8.60;86.70
8591;DHT22;4333;48.322;14.340;2022-12-29T12:01:20;8.70;84.00
8591;DHT22;4333;48.322;14.340;2022-12-29T12:06:22;8.60;82.50
8591;DHT22;4333;48.322;14.340;2022-12-29T12:09:21;8.70;82.80
8591;DHT22;4333;48.322;14.340;2022-12-29T12:11:52;8.70;83.20
8591;DHT22;4333;48.322;14.340;2022-12-29T12:14:36;8.50;78.00
8591;DHT22;4333;48.322;14.340;2022-12-29T12:17:23;8.40;80.50
8591;DHT22;4333;48.322;14.340;2022-12-29T12:19:59;8.30;78.70
8591;DHT22;4333;48.322;14.340;2022-12-29T12:22:39;8.30;80.20
8591;DHT22;4333;48.322;14.340;2022-12-29T12:25:24;8.40;80.60
8591;DHT22;4333;48.322;14.340;2022-12-29T12:30:23;8.50;84.30
8591;DHT22;4333;48.322;14.340;2022-12-29T12:33:03;8.90;82.50
8591;DHT22;4333;48.322;14.340;2022-12-29T12:53:07;8.90;60.00
8591;DHT22;4333;48.322;14.340;2022-12-29T13:01:00;8.50;65.10
8591;DHT22;4333;48.322;14.340;2022-12-29T13:06:26;8.30;64.70
8591;DHT22;4333;48.322;14.340;2022-12-29T13:14:37;8.60;66.60
8591;DHT22;4333;48.322;14.340;2022-12-29T13:22:41;8.90;66.50
8591;DHT22;4333;48.322;14.340;2022-12-29T13:25:25;9.30;66.60
8591;DHT22;4333;48.322;14.340;2022-12-29T13:30:50;9.10;60.00
8591;DHT22;4333;48.322;14.340;2022-12-29T13:33:23;9.00;64.00
8591;DHT22;4333;48.322;14.340;2022-12-29T13:36:05;9.20;62.70
8591;DHT22;4333;48.322;14.340;2022-12-29T13:41:37;9.50;67.10
8591;DHT22;4333;48.322;14.340;2022-12-29T13:44:05;9.50;64.20
8591;DHT22;4333;48.322;14.340;2022-12-29T13:46:40;8.90;63.10
8591;DHT22;4333;48.322;14.340;2022-12-29T13:49:16;8.40;67.00
8591;DHT22;4333;48.322;14.340;2022-12-29T13:51:53;8.60;73.10
8591;DHT22;4333;48.322;14.340;2022-12-29T13:57:02;9.00;70.50
8591;DHT22;4333;48.322;14.340;2022-12-29T14:07:46;8.60;70.50
8591;DHT22;4333;48.322;14.340;2022-12-29T14:13:23;8.10;75.40
8591;DHT22;4333;48.322;14.340;2022-12-29T14:15:55;7.90;76.20
8591;DHT22;4333;48.322;14.340;2022-12-29T14:18:26;7.90;79.00
8591;DHT22;4333;48.322;14.340;2022-12-29T14:21:10;7.70;78.80
8591;DHT22;4333;48.322;14.340;2022-12-29T14:23:43;7.60;85.00
8591;DHT22;4333;48.322;14.340;2022-12-29T14:28:54;7.20;94.10
8591;DHT22;4333;48.322;14.340;2022-12-29T14:39:40;7.30;96.70
8591;DHT22;4333;48.322;14.340;2022-12-29T14:44:33;6.50;99.90
8591;DHT22;4333;48.322;14.340;2022-12-29T14:47:04;6.50;99.90
8591;DHT22;4333;48.322;14.340;2022-12-29T14:49:39;6.20;99.90
8591;DHT22;4333;48.322;14.340;2022-12-29T14:52:26;6.20;99.90
8591;DHT22;4333;48.322;14.340;2022-12-29T14:57:52;6.30;99.90
8591;DHT22;4333;48.322;14.340;2022-12-29T15:00:24;6.20;99.90
8591;DHT22;4333;48.322;14.340;2022-12-29T15:06:07;6.10;99.90
8591;DHT22;4333;48.322;14.340;2022-12-29T15:08:54;5.90;99.90
8591;DHT22;4333;48.322;14.340;2022-12-29T15:11:24;5.90;99.90
8591;DHT22;4333;48.322;14.340;2022-12-29T15:13:50;6.00;99.90
8591;DHT22;4333;48.322;14.340;2022-12-29T15:16:24;6.00;99.90
8591;DHT22;4333;48.322;14.340;2022-12-29T15:18:50;5.80;99.90
8591;DHT22;4333;48.322;14.340;2022-12-29T15:21:23;5.70;99.90
8591;DHT22;4333;48.322;14.340;2022-12-29T15:23:50;5.40;99.90
8591;DHT22;4333;48.322;14.340;2022-12-29T15:26:16;5.20;99.90
8591;DHT22;4333;48.322;14.340;2022-12-29T15:28:49;5.20;99.90
8591;DHT22;4333;48.322;14.340;2022-12-29T15:31:21;5.30;99.90
8591;DHT22;4333;48.322;14.340;2022-12-29T15:33:51;5.30;99.90
8591;DHT22;4333;48.322;14.340;2022-12-29T15:36:25;5.30;99.90
8591;DHT22;4333;48.322;14.340;2022-12-29T15:38:52;5.10;99.90
8591;DHT22;4333;48.322;14.340;2022-12-29T15:44:02;5.00;99.90
8591;DHT22;4333;48.322;14.340;2022-12-29T15:46:31;4.90;99.90
8591;DHT22;4333;48.322;14.340;2022-12-29T15:48:57;4.80;99.90
8591;DHT22;4333;48.322;14.340;2022-12-29T15:51:30;4.90;99.90
8591;DHT22;4333;48.322;14.340;2022-12-29T15:53:58;4.90;99.90
8591;DHT22;4333;48.322;14.340;2022-12-29T15:56:24;4.80;99.90
8591;DHT22;4333;48.322;14.340;2022-12-29T15:58:51;4.70;99.90
8591;DHT22;4333;48.322;14.340;2022-12-29T16:03:53;4.60;99.90
8591;DHT22;4333;48.322;14.340;2022-12-29T16:09:02;4.50;99.90
8591;DHT22;4333;48.322;14.340;2022-12-29T16:11:40;4.40;99.90
8591;DHT22;4333;48.322;14.340;2022-12-29T16:14:18;4.40;99.90
8591;DHT22;4333;48.322;14.340;2022-12-29T16:16:46;4.30;99.90
8591;DHT22;4333;48.322;14.340;2022-12-29T16:19:25;4.20;99.90
8591;DHT22;4333;48.322;14.340;2022-12-29T16:21:52;4.10;99.90
8591;DHT22;4333;48.322;14.340;2022-12-29T16:24:20;4.10;99.90
8591;DHT22;4333;48.322;14.340;2022-12-29T16:26:48;4.00;99.90
8591;DHT22;4333;48.322;14.340;2022-12-29T16:29:16;3.90;99.90
8591;DHT22;4333;48.322;14.340;2022-12-29T16:31:56;4.10;99.90
8591;DHT22;4333;48.322;14.340;2022-12-29T16:34:43;4.10;99.90
8591;DHT22;4333;48.322;14.340;2022-12-29T16:37:29;4.10;99.90
8591;DHT22;4333;48.322;14.340;2022-12-29T16:39:55;4.10;99.90
8591;DHT22;4333;48.322;14.340;2022-12-29T16:47:35;3.80;99.90
8591;DHT22;4333;48.322;14.340;2022-12-29T16:50:12;3.60;99.90
8591;DHT22;4333;48.322;14.340;2022-12-29T16:52:38;3.50;99.90
8591;DHT22;4333;48.322;14.340;2022-12-29T16:55:16;3.50;99.90
8591;DHT22;4333;48.322;14.340;2022-12-29T16:57:44;3.40;99.90
8591;DHT22;4333;48.322;14.340;2022-12-29T17:00:36;3.30;99.90
8591;DHT22;4333;48.322;14.340;2022-12-29T17:03:03;3.10;99.90
8591;DHT22;4333;48.322;14.340;2022-12-29T17:05:29;3.10;99.90
8591;DHT22;4333;48.322;14.340;2022-12-29T17:07:55;3.10;99.90
8591;DHT22;4333;48.322;14.340;2022-12-29T17:10:27;3.00;99.90
8591;DHT22;4333;48.322;14.340;2022-12-29T17:13:14;3.00;99.90
8591;DHT22;4333;48.322;14.340;2022-12-29T17:15:39;3.00;99.90
8591;DHT22;4333;48.322;14.340;2022-12-29T17:18:06;3.00;99.90
8591;DHT22;4333;48.322;14.340;2022-12-29T17:20:32;3.00;99.90
8591;DHT22;4333;48.322;14.340;2022-12-29T17:22:58;3.00;99.90
8591;DHT22;4333;48.322;14.340;2022-12-29T17:25:51;3.00;99.90
8591;DHT22;4333;48.322;14.340;2022-12-29T17:28:24;3.10;99.90
8591;DHT22;4333;48.322;14.340;2022-12-29T17:30:52;3.10;99.90
8591;DHT22;4333;48.322;14.340;2022-12-29T17:33:19;3.10;99.90
8591;DHT22;4333;48.322;14.340;2022-12-29T17:35:46;3.00;99.90
8591;DHT22;4333;48.322;14.340;2022-12-29T17:38:27;2.90;99.90
8591;DHT22;4333;48.322;14.340;2022-12-29T17:40:54;2.90;99.90
8591;DHT22;4333;48.322;14.340;2022-12-29T17:43:20;2.80;99.90
8591;DHT22;4333;48.322;14.340;2022-12-29T17:45:53;2.70;99.90
8591;DHT22;4333;48.322;14.340;2022-12-29T17:48:20;2.60;99.90
8591;DHT22;4333;48.322;14.340;2022-12-29T17:50:48;2.60;99.90
8591;DHT22;4333;48.322;14.340;2022-12-29T17:53:20;2.50;99.90
8591;DHT22;4333;48.322;14.340;2022-12-29T17:55:47;2.50;99.90
8591;DHT22;4333;48.322;14.340;2022-12-29T17:58:20;2.60;99.90
8591;DHT22;4333;48.322;14.340;2022-12-29T18:00:47;2.50;99.90
8591;DHT22;4333;48.322;14.340;2022-12-29T18:03:22;2.40;99.90
8591;DHT22;4333;48.322;14.340;2022-12-29T18:05:50;2.30;99.90
8591;DHT22;4333;48.322;14.340;2022-12-29T18:08:16;2.30;99.90
8591;DHT22;4333;48.322;14.340;2022-12-29T18:10:42;2.40;99.90
8591;DHT22;4333;48.322;14.340;2022-12-29T18:13:21;2.40;99.90
8591;DHT22;4333;48.322;14.340;2022-12-29T18:15:47;2.30;99.90
8591;DHT22;4333;48.322;14.340;2022-12-29T18:18:15;2.30;99.90
8591;DHT22;4333;48.322;14.340;2022-12-29T18:20:43;2.20;99.90
8591;DHT22;4333;48.322;14.340;2022-12-29T18:28:21;2.20;99.90
8591;DHT22;4333;48.322;14.340;2022-12-29T18:30:48;2.30;99.90
8591;DHT22;4333;48.322;14.340;2022-12-29T18:33:16;2.20;99.90
8591;DHT22;4333;48.322;14.340;2022-12-29T18:35:52;2.20;99.90
8591;DHT22;4333;48.322;14.340;2022-12-29T18:38:19;2.20;99.90
8591;DHT22;4333;48.322;14.340;2022-12-29T18:40:47;2.10;99.90
8591;DHT22;4333;48.322;14.340;2022-12-29T18:43:13;2.20;99.90
8591;DHT22;4333;48.322;14.340;2022-12-29T18:45:40;2.20;99.90
8591;DHT22;4333;48.322;14.340;2022-12-29T18:48:07;2.20;99.90
8591;DHT22;4333;48.322;14.340;2022-12-29T18:50:33;2.20;99.90
8591;DHT22;4333;48.322;14.340;2022-12-29T18:52:58;2.20;99.90
8591;DHT22;4333;48.322;14.340;2022-12-29T18:55:27;2.20;99.90
8591;DHT22;4333;48.322;14.340;2022-12-29T18:57:53;2.20;99.90
8591;DHT22;4333;48.322;14.340;2022-12-29T19:00:20;2.10;99.90
8591;DHT22;4333;48.322;14.340;2022-12-29T19:02:49;2.10;99.90
8591;DHT22;4333;48.322;14.340;2022-12-29T19:05:26;2.00;99.90
8591;DHT22;4333;48.322;14.340;2022-12-29T19:07:53;2.00;99.90
8591;DHT22;4333;48.322;14.340;2022-12-29T19:10:21;1.90;99.90